Terminal Aerodrome Forecast
Issued by NWS

Home | Current Version | Previous Version | Text Only | Print | Product List | Glossary On
Versions: 1 2 3 4 5 6 7 8 9 10 11 12 13 14 15
000
FTUS43 KILX 121700 RRA
TAFBMI
TAF
KBMI 121743Z 1218/1318 22010KT P6SM SCT050 BKN100
     FM130200 18012KT P6SM BKN120
     FM130500 21013KT P6SM -RA VCTS SCT040CB BKN100
      TEMPO 1305/1308 2SM TSRA BKN035CB
     FM131200 26007KT 5SM BR BKN100=

USA.gov is the U.S. government's official web portal to all federal, state and local government web resources and services.